createdAt,value
2019-04-01T00:00:22.479Z,14.50
2019-04-01T00:01:22.445Z,16.40
2019-04-01T00:02:22.404Z,15.50
2019-04-01T00:03:22.419Z,14.80
2019-04-01T00:04:22.317Z,13.40
2019-04-01T00:05:22.275Z,12.00
2019-04-01T00:06:22.237Z,15.00
2019-04-01T00:07:22.201Z,13.40
2019-04-01T00:08:22.160Z,14.40
2019-04-01T00:09:22.119Z,16.30
2019-04-01T00:10:22.079Z,15.20
2019-04-01T00:11:22.039Z,15.30
2019-04-01T00:12:21.992Z,14.30
2019-04-01T00:13:21.951Z,15.10
2019-04-01T00:14:21.917Z,13.80
2019-04-01T00:15:21.874Z,13.90
2019-04-01T00:16:21.837Z,14.70
2019-04-01T00:17:21.788Z,13.80
2019-04-01T00:18:21.750Z,13.90
2019-04-01T00:19:21.712Z,12.60
2019-04-01T00:20:21.674Z,15.10
2019-04-01T00:21:21.631Z,12.50
2019-04-01T00:22:21.590Z,14.40
2019-04-01T00:23:21.547Z,13.70
2019-04-01T00:24:21.505Z,13.20
2019-04-01T00:25:21.464Z,13.40
2019-04-01T00:26:21.425Z,12.70
2019-04-01T00:27:21.385Z,14.80
2019-04-01T00:28:21.347Z,15.00
2019-04-01T00:29:21.305Z,15.00
2019-04-01T00:30:21.291Z,14.20
2019-04-01T00:31:21.221Z,12.60
2019-04-01T00:32:21.179Z,14.10
2019-04-01T00:33:21.143Z,15.10
2019-04-01T00:34:21.100Z,14.50
2019-04-01T00:35:21.060Z,13.00
2019-04-01T00:36:21.016Z,11.50
2019-04-01T00:37:20.975Z,16.80
2019-04-01T00:38:20.937Z,14.00
2019-04-01T00:39:20.901Z,16.20
2019-04-01T00:40:20.859Z,14.80
2019-04-01T00:41:20.817Z,14.50
2019-04-01T00:42:20.775Z,15.40
2019-04-01T00:43:20.733Z,14.80
2019-04-01T00:44:20.689Z,18.00
2019-04-01T00:45:20.654Z,15.70
2019-04-01T00:46:20.610Z,17.10
2019-04-01T00:47:20.570Z,15.60
2019-04-01T00:48:20.532Z,13.50
2019-04-01T00:49:20.485Z,14.50
2019-04-01T00:50:20.447Z,16.80
2019-04-01T00:51:20.411Z,14.40
2019-04-01T00:52:20.369Z,18.80
2019-04-01T00:53:20.329Z,15.90
2019-04-01T00:54:20.286Z,15.10
2019-04-01T00:55:20.242Z,17.00
2019-04-01T00:56:20.200Z,15.00
2019-04-01T00:57:20.161Z,16.00
2019-04-01T00:58:20.120Z,14.20
2019-04-01T00:59:20.082Z,16.00
2019-04-01T01:00:20.045Z,13.90
2019-04-01T01:01:20.003Z,15.30
2019-04-01T01:02:19.959Z,14.70
2019-04-01T01:03:19.920Z,17.90
2019-04-01T01:04:19.873Z,15.10
2019-04-01T01:05:19.839Z,14.90
2019-04-01T01:06:19.796Z,13.70
2019-04-01T01:07:19.754Z,14.50
2019-04-01T01:08:19.709Z,15.90
2019-04-01T01:09:19.674Z,16.00
2019-04-01T01:10:19.631Z,14.70
2019-04-01T01:11:19.592Z,16.00
2019-04-01T01:12:19.552Z,15.30
2019-04-01T01:13:19.512Z,15.50
2019-04-01T01:14:19.468Z,14.60
2019-04-01T01:15:19.427Z,16.80
2019-04-01T01:16:19.382Z,15.00
2019-04-01T01:17:19.342Z,16.10
2019-04-01T01:18:19.300Z,13.40
2019-04-01T01:19:19.263Z,14.70
2019-04-01T01:20:19.227Z,15.10
2019-04-01T01:21:19.177Z,14.30
2019-04-01T01:22:19.139Z,14.20
2019-04-01T01:23:19.099Z,14.10
2019-04-01T01:24:19.060Z,15.40
2019-04-01T01:25:19.020Z,15.20
2019-04-01T01:26:18.976Z,13.40
2019-04-01T01:27:18.939Z,16.70
2019-04-01T01:28:18.891Z,14.20
2019-04-01T01:29:18.852Z,16.30
2019-04-01T01:30:18.813Z,13.30
2019-04-01T01:31:18.773Z,13.40
2019-04-01T01:32:18.734Z,13.40
2019-04-01T01:33:18.691Z,15.10
2019-04-01T01:34:18.650Z,14.20
2019-04-01T01:35:18.606Z,14.40
2019-04-01T01:36:18.565Z,14.90
2019-04-01T01:37:18.528Z,14.00
2019-04-01T01:38:18.487Z,15.80
2019-04-01T01:39:18.443Z,14.20
2019-04-01T01:40:18.399Z,15.70
2019-04-01T01:41:18.358Z,15.50
2019-04-01T01:42:18.319Z,13.50
2019-04-01T01:43:18.283Z,17.20
2019-04-01T01:44:18.242Z,15.30
2019-04-01T01:45:18.199Z,15.20
2019-04-01T01:46:18.159Z,15.70
2019-04-01T01:47:18.115Z,14.50
2019-04-01T01:48:18.072Z,16.00
2019-04-01T01:49:18.029Z,14.70
2019-04-01T01:50:17.991Z,15.10
2019-04-01T01:51:17.952Z,15.00
2019-04-01T01:52:17.914Z,13.50
2019-04-01T01:53:17.866Z,13.00
2019-04-01T01:54:17.827Z,13.30
2019-04-01T01:55:17.787Z,15.40
2019-04-01T01:56:17.748Z,15.00
2019-04-01T01:57:17.707Z,12.80
2019-04-01T01:58:17.664Z,13.40
2019-04-01T01:59:17.622Z,14.70
2019-04-01T02:00:17.582Z,14.70
2019-04-01T02:01:17.538Z,14.70
2019-04-01T02:02:17.497Z,14.50
2019-04-01T02:03:17.459Z,15.10
2019-04-01T02:04:17.419Z,13.30
2019-04-01T02:05:17.379Z,15.50
2019-04-01T02:06:17.336Z,13.70
2019-04-01T02:07:17.291Z,13.40
2019-04-01T02:08:17.250Z,12.50
2019-04-01T02:09:17.216Z,15.70
2019-04-01T02:10:17.175Z,14.60
2019-04-01T02:11:17.129Z,15.40
2019-04-01T02:12:17.085Z,12.50
2019-04-01T02:13:17.044Z,14.30
2019-04-01T02:14:17.008Z,11.40
2019-04-01T02:15:16.968Z,13.80
2019-04-01T02:16:16.925Z,13.00
2019-04-01T02:17:16.885Z,13.70
2019-04-01T02:18:16.841Z,13.90
2019-04-01T02:19:16.800Z,13.50
2019-04-01T02:20:16.768Z,13.10
2019-04-01T02:21:16.714Z,15.20
2019-04-01T02:22:16.675Z,15.10
2019-04-01T02:23:16.640Z,13.40
2019-04-01T02:24:16.598Z,14.10
2019-04-01T02:25:16.550Z,12.80
2019-04-01T02:26:16.512Z,13.00
2019-04-01T02:27:16.472Z,14.60
2019-04-01T02:28:16.438Z,13.40
2019-04-01T02:29:16.391Z,15.00
2019-04-01T02:30:16.348Z,13.40
2019-04-01T02:31:16.304Z,13.00
2019-04-01T02:32:16.265Z,14.00
2019-04-01T02:33:16.224Z,13.70
2019-04-01T02:34:16.185Z,14.90
2019-04-01T02:35:16.145Z,12.50
2019-04-01T02:36:16.100Z,14.40
2019-04-01T02:37:16.061Z,14.10
2019-04-01T02:38:16.020Z,13.50
2019-04-01T02:39:16.006Z,14.00
2019-04-01T02:40:15.934Z,14.50
2019-04-01T02:41:15.903Z,15.70
2019-04-01T02:42:15.856Z,15.90
2019-04-01T02:43:15.811Z,15.10
2019-04-01T02:44:15.770Z,16.20
2019-04-01T02:45:15.735Z,13.90
2019-04-01T02:46:15.690Z,15.10
2019-04-01T02:47:15.658Z,15.70
2019-04-01T02:48:15.619Z,15.60
2019-04-01T02:49:15.564Z,16.50
2019-04-01T02:50:15.526Z,14.60
2019-04-01T02:51:15.477Z,13.70
2019-04-01T02:52:15.439Z,16.60
2019-04-01T02:53:15.398Z,14.20
2019-04-01T02:54:15.353Z,13.70
2019-04-01T02:55:15.320Z,13.50
2019-04-01T02:56:15.278Z,13.80
2019-04-01T02:57:15.232Z,15.30
2019-04-01T02:58:15.196Z,16.10
2019-04-01T02:59:15.166Z,13.10
2019-04-01T03:00:15.110Z,12.90
2019-04-01T03:01:15.069Z,14.80
2019-04-01T03:02:15.028Z,13.50
2019-04-01T03:03:14.982Z,14.90
2019-04-01T03:05:47.223Z,12.50
2019-04-01T03:06:46.987Z,15.10
2019-04-01T03:07:46.950Z,15.70
2019-04-01T03:08:47.013Z,15.00
2019-04-01T03:09:46.864Z,12.80
2019-04-01T03:10:46.826Z,13.90
2019-04-01T03:11:46.787Z,14.20
2019-04-01T03:12:46.744Z,16.00
2019-04-01T03:13:46.710Z,15.30
2019-04-01T03:14:46.665Z,15.30
2019-04-01T03:15:46.623Z,13.60
2019-04-01T03:16:46.577Z,14.70
2019-04-01T03:17:46.540Z,15.40
2019-04-01T03:18:46.505Z,14.70
2019-04-01T03:19:46.452Z,13.20
2019-04-01T03:20:46.409Z,14.80
2019-04-01T03:21:46.383Z,15.10
2019-04-01T03:22:46.337Z,15.40
2019-04-01T03:23:46.286Z,13.30
2019-04-01T03:37:21.197Z,16.50
2019-04-01T03:38:21.120Z,14.00
2019-04-01T03:39:21.080Z,16.00
2019-04-01T03:40:21.033Z,16.80
2019-04-01T03:41:21.005Z,17.90
2019-04-01T03:42:20.959Z,16.80
2019-04-01T03:43:20.903Z,18.50
2019-04-01T03:44:20.882Z,15.80
2019-04-01T03:45:20.808Z,15.90
2019-04-01T03:46:20.772Z,15.80
2019-04-01T03:47:20.726Z,15.70
2019-04-01T03:48:20.694Z,16.50
2019-04-01T03:49:20.641Z,15.70
2019-04-01T03:50:20.599Z,20.00
2019-04-01T03:51:20.558Z,16.90
2019-04-01T03:52:20.510Z,16.20
2019-04-01T03:53:20.468Z,18.40
2019-04-01T03:54:20.432Z,16.70
2019-04-01T03:55:20.382Z,15.80
2019-04-01T03:56:20.346Z,16.80
2019-04-01T03:57:20.300Z,18.20
2019-04-01T03:58:20.259Z,13.00
2019-04-01T03:59:20.219Z,14.20
2019-04-01T04:00:20.178Z,15.70
2019-04-01T04:01:20.142Z,15.60
2019-04-01T04:02:20.090Z,13.70
2019-04-01T04:03:20.057Z,14.60
2019-04-01T04:04:20.007Z,16.30
2019-04-01T04:05:19.966Z,16.50
2019-04-01T04:06:19.921Z,15.00
2019-04-01T04:07:19.876Z,13.10
2019-04-01T04:08:19.861Z,16.40
2019-04-01T04:09:19.800Z,16.10
2019-04-01T04:10:19.753Z,17.40
2019-04-01T04:11:19.721Z,17.30
2019-04-01T04:12:19.677Z,14.30
2019-04-01T04:13:19.626Z,17.20
2019-04-01T04:14:19.588Z,14.20
2019-04-01T04:15:19.550Z,15.60
2019-04-01T04:16:19.499Z,17.40
2019-04-01T04:17:19.480Z,15.40
2019-04-01T04:18:19.417Z,15.70
2019-04-01T04:19:19.371Z,15.30
2019-04-01T04:20:19.337Z,15.00
2019-04-01T04:21:23.634Z,20.60
2019-04-01T04:22:19.320Z,16.30
2019-04-01T04:23:19.211Z,17.30
2019-04-01T04:24:19.170Z,17.20
2019-04-01T04:25:19.124Z,18.10
2019-04-01T04:26:19.087Z,16.80
2019-04-01T04:27:19.037Z,18.40
2019-04-01T04:28:19.001Z,16.30
2019-04-01T04:29:18.956Z,15.90
2019-04-01T04:30:18.914Z,14.50
2019-04-01T04:31:18.871Z,16.20
2019-04-01T04:32:18.839Z,17.20
2019-04-01T04:33:18.795Z,14.10
2019-04-01T04:34:18.751Z,16.60
2019-04-01T04:35:18.710Z,16.80
2019-04-01T04:36:18.663Z,16.90
2019-04-01T04:37:18.625Z,13.80
2019-04-01T04:38:18.601Z,17.40
2019-04-01T04:39:18.539Z,17.90
2019-04-01T04:40:18.494Z,15.90
2019-04-01T04:41:18.450Z,19.00
2019-04-01T04:42:18.410Z,16.10
2019-04-01T04:43:18.367Z,13.90
2019-04-01T04:44:18.329Z,16.80
2019-04-01T04:45:18.285Z,15.80
2019-04-01T04:46:21.052Z,14.10
2019-04-01T04:47:18.212Z,15.70
2019-04-01T04:48:18.163Z,16.60
2019-04-01T04:49:18.116Z,17.20
2019-04-01T04:50:18.074Z,15.80
2019-04-01T04:51:18.036Z,18.60
2019-04-01T04:52:17.989Z,19.80
2019-04-01T04:53:17.946Z,17.10
2019-04-01T04:54:17.918Z,14.90
2019-04-01T04:55:17.863Z,16.90
2019-04-01T04:56:17.825Z,20.10
2019-04-01T04:57:20.275Z,17.30
2019-04-01T04:58:17.738Z,20.80
2019-04-01T04:59:17.703Z,14.50
2019-04-01T05:00:17.683Z,17.90
2019-04-01T05:01:17.618Z,17.60
2019-04-01T05:02:17.616Z,18.10
2019-04-01T05:03:17.544Z,16.70
2019-04-01T05:04:17.501Z,17.90
2019-04-01T05:05:17.443Z,19.10
2019-04-01T05:06:17.409Z,17.30
2019-04-01T05:07:17.363Z,16.00
2019-04-01T05:08:17.339Z,18.70
2019-04-01T05:09:17.304Z,14.70
2019-04-01T05:10:17.306Z,15.90
2019-04-01T05:11:17.218Z,16.10
2019-04-01T05:12:17.149Z,17.90
2019-04-01T05:13:17.116Z,15.90
2019-04-01T05:14:17.075Z,14.30
2019-04-01T05:15:17.120Z,17.60
2019-04-01T05:16:17.000Z,16.40
2019-04-01T05:17:16.948Z,15.00
2019-04-01T05:18:16.902Z,18.60
2019-04-01T05:19:16.886Z,15.60
2019-04-01T05:20:16.949Z,14.50
2019-04-01T05:21:16.776Z,12.80
2019-04-01T05:22:16.740Z,15.90
2019-04-01T05:23:16.696Z,17.40
2019-04-01T05:24:16.655Z,14.40
2019-04-01T05:25:16.642Z,15.30
2019-04-01T05:26:16.601Z,17.50
2019-04-01T05:27:16.526Z,16.40
2019-04-01T05:28:16.508Z,16.90
2019-04-01T05:29:16.459Z,15.50
2019-04-01T05:30:16.428Z,15.50
2019-04-01T05:31:16.360Z,14.80
2019-04-01T05:32:16.392Z,16.60
2019-04-01T05:33:16.311Z,17.50
2019-04-01T05:34:16.248Z,17.30
2019-04-01T05:35:16.245Z,16.60
2019-04-01T05:36:16.149Z,19.10
2019-04-01T05:37:16.109Z,17.40
2019-04-01T05:38:16.058Z,17.60
2019-04-01T05:39:16.019Z,15.50
2019-04-01T05:40:15.986Z,16.70
2019-04-01T05:41:15.939Z,20.40
2019-04-01T05:42:15.896Z,14.70
2019-04-01T05:43:15.885Z,17.50
2019-04-01T05:44:15.807Z,19.00
2019-04-01T05:45:15.770Z,17.30
2019-04-01T05:46:15.726Z,17.40
2019-04-01T05:47:15.693Z,18.60
2019-04-01T05:48:15.647Z,15.30
2019-04-01T05:49:15.695Z,19.80
2019-04-01T05:50:15.554Z,15.30
2019-04-01T05:51:15.516Z,16.40
2019-04-01T05:52:15.477Z,17.00
2019-04-01T05:53:15.432Z,17.90
2019-04-01T05:54:15.389Z,14.90
2019-04-01T05:55:15.351Z,15.60
2019-04-01T05:56:15.303Z,14.70
2019-04-01T05:57:15.259Z,15.10
2019-04-01T05:58:15.287Z,17.70
2019-04-01T05:59:15.184Z,16.90
2019-04-01T06:00:15.142Z,15.60
2019-04-01T06:01:15.102Z,18.20
2019-04-01T06:02:15.050Z,17.90
2019-04-01T06:03:15.078Z,16.80
2019-04-01T06:04:14.965Z,17.10
2019-04-01T06:05:14.927Z,19.20
2019-04-01T06:06:14.884Z,15.90
2019-04-01T06:07:14.865Z,16.30
2019-04-01T06:08:14.799Z,19.70
2019-04-01T06:09:14.758Z,20.90
2019-04-01T06:10:14.717Z,18.10
2019-04-01T06:11:14.673Z,15.90
2019-04-01T06:12:14.636Z,14.60
2019-04-01T06:13:14.591Z,15.20
2019-04-01T06:14:14.578Z,15.40
2019-04-01T06:15:14.512Z,14.90
2019-04-01T06:16:14.467Z,15.90
2019-04-01T06:17:14.427Z,16.30
2019-04-01T06:18:14.383Z,15.20
2019-04-01T06:19:14.341Z,17.60
2019-04-01T06:20:14.299Z,15.00
2019-04-01T06:21:14.263Z,15.90
2019-04-01T06:22:14.237Z,17.50
2019-04-01T06:23:14.173Z,16.70
2019-04-01T06:24:14.142Z,16.50
2019-04-01T06:25:14.096Z,16.10
2019-04-01T06:26:14.051Z,14.70
2019-04-01T06:27:14.015Z,16.20
2019-04-01T06:28:13.962Z,17.30
2019-04-01T06:29:13.924Z,15.80
2019-04-01T06:30:13.883Z,15.80
2019-04-01T06:31:13.839Z,17.40
2019-04-01T06:32:13.800Z,20.50
2019-04-01T06:33:13.758Z,19.70
2019-04-01T06:34:13.717Z,24.80
2019-04-01T06:35:13.677Z,22.90
2019-04-01T06:36:13.640Z,25.60
2019-04-01T06:37:13.588Z,23.50
2019-04-01T06:38:13.551Z,23.30
2019-04-01T06:39:13.524Z,28.60
2019-04-01T06:40:13.462Z,21.70
2019-04-01T06:41:13.425Z,22.80
2019-04-01T06:42:13.382Z,21.90
2019-04-01T06:43:13.342Z,20.40
2019-04-01T06:44:13.303Z,19.60
2019-04-01T06:45:13.266Z,19.90
2019-04-01T06:46:13.220Z,19.70
2019-04-01T06:47:13.184Z,20.70
2019-04-01T06:48:13.131Z,18.70
2019-04-01T06:49:13.094Z,21.10
2019-04-01T06:50:13.052Z,22.70
2019-04-01T06:51:13.006Z,20.50
2019-04-01T06:52:12.975Z,20.20
2019-04-01T06:53:12.934Z,18.60
2019-04-01T06:54:12.884Z,21.20
2019-04-01T06:55:12.843Z,20.40
2019-04-01T06:56:12.806Z,19.30
2019-04-01T06:57:12.761Z,18.80
2019-04-01T06:58:12.781Z,18.60
2019-04-01T06:59:12.680Z,20.60
2019-04-01T07:00:12.633Z,21.40
2019-04-01T07:01:12.596Z,19.00
2019-04-01T07:02:12.554Z,19.00
2019-04-01T07:03:12.511Z,16.70
2019-04-01T07:04:12.476Z,19.50
2019-04-01T07:05:12.733Z,17.10
2019-04-01T07:06:12.394Z,15.20
2019-04-01T07:07:18.913Z,15.70
2019-04-01T07:08:12.305Z,16.60
2019-04-01T07:09:12.265Z,15.70
2019-04-01T07:10:12.227Z,18.20
2019-04-01T07:11:12.184Z,16.00
2019-04-01T07:12:12.138Z,17.40
2019-04-01T07:13:12.101Z,16.40
2019-04-01T07:14:12.067Z,13.90
2019-04-01T07:15:12.018Z,14.30
2019-04-01T07:16:15.853Z,16.00
2019-04-01T07:17:11.946Z,14.00
2019-04-01T07:18:11.904Z,16.10
2019-04-01T07:19:11.886Z,15.60
2019-04-01T07:20:11.821Z,16.60
2019-04-01T07:21:11.775Z,16.40
2019-04-01T07:22:11.736Z,15.80
2019-04-01T07:23:11.690Z,15.00
2019-04-01T07:24:11.660Z,15.30
2019-04-01T07:25:11.644Z,15.60
2019-04-01T07:26:11.572Z,16.90
2019-04-01T07:27:11.531Z,15.90
2019-04-01T07:28:11.574Z,14.90
2019-04-01T07:29:11.443Z,13.80
2019-04-01T07:30:11.478Z,14.40
2019-04-01T07:31:11.367Z,15.50
2019-04-01T07:32:14.440Z,13.30
2019-04-01T07:33:11.289Z,13.90
2019-04-01T07:34:11.259Z,13.50
2019-04-01T07:35:11.196Z,12.60
2019-04-01T07:36:11.161Z,16.10
2019-04-01T07:37:11.117Z,16.80
2019-04-01T07:38:11.079Z,16.20
2019-04-01T07:39:11.042Z,12.60
2019-04-01T07:40:13.788Z,14.80
2019-04-01T07:41:10.952Z,14.30
2019-04-01T07:42:10.913Z,14.60
2019-04-01T07:43:10.876Z,15.40
2019-04-01T07:44:10.829Z,14.30
2019-04-01T07:45:10.787Z,14.10
2019-04-01T07:46:10.760Z,16.50
2019-04-01T07:47:10.715Z,13.20
2019-04-01T07:48:12.576Z,16.50
2019-04-01T07:49:10.632Z,13.30
2019-04-01T07:50:12.306Z,16.50
2019-04-01T07:51:10.549Z,13.40
2019-04-01T07:52:10.502Z,18.10
2019-04-01T07:53:10.467Z,16.10
2019-04-01T07:54:10.422Z,12.40
2019-04-01T07:55:10.414Z,15.60
2019-04-01T07:56:10.348Z,17.90
2019-04-01T07:57:10.304Z,15.70
2019-04-01T07:58:10.262Z,17.60
2019-04-01T07:59:10.221Z,14.60
2019-04-01T08:00:10.185Z,18.00
2019-04-01T08:01:10.141Z,15.70
2019-04-01T08:02:10.133Z,16.20
2019-04-01T08:03:10.060Z,14.90
2019-04-01T08:04:10.013Z,15.40
2019-04-01T08:05:09.975Z,14.40
2019-04-01T08:06:09.936Z,15.10
2019-04-01T08:07:13.101Z,16.80
2019-04-01T08:08:09.865Z,15.50
2019-04-01T08:09:09.814Z,16.00
2019-04-01T08:10:09.774Z,18.40
2019-04-01T08:11:09.737Z,18.20
2019-04-01T08:12:09.692Z,16.00
2019-04-01T08:13:09.654Z,14.90
2019-04-01T08:14:09.616Z,16.00
2019-04-01T08:15:09.580Z,18.50
2019-04-01T08:16:09.528Z,17.50
2019-04-01T08:17:09.492Z,16.80
2019-04-01T08:18:09.448Z,15.80
2019-04-01T08:19:09.408Z,15.10
2019-04-01T08:20:09.375Z,17.00
2019-04-01T08:21:09.331Z,15.60
2019-04-01T08:22:09.288Z,15.10
2019-04-01T08:23:09.253Z,14.90
2019-04-01T08:24:09.206Z,15.20
2019-04-01T08:25:09.168Z,16.50
2019-04-01T08:26:09.124Z,13.60
2019-04-01T08:27:09.087Z,17.00
2019-04-01T08:28:10.107Z,16.40
2019-04-01T08:29:09.005Z,17.30
2019-04-01T08:30:08.962Z,15.30
2019-04-01T08:31:08.924Z,15.30
2019-04-01T08:32:08.887Z,15.00
2019-04-01T08:33:09.813Z,17.40
2019-04-01T08:34:08.813Z,15.30
2019-04-01T08:35:08.783Z,16.40
2019-04-01T08:36:08.719Z,14.40
2019-04-01T08:37:08.689Z,14.40
2019-04-01T08:38:08.640Z,15.70
2019-04-01T08:39:08.601Z,16.90
2019-04-01T08:40:08.565Z,12.20
2019-04-01T08:41:08.521Z,17.60
2019-04-01T08:42:08.479Z,16.60
2019-04-01T08:43:08.447Z,15.90
2019-04-01T08:44:08.396Z,13.40
2019-04-01T08:45:08.357Z,19.00
2019-04-01T08:46:08.324Z,17.10
2019-04-01T08:47:08.280Z,13.90
2019-04-01T08:48:08.260Z,14.70
2019-04-01T08:49:08.199Z,17.80
2019-04-01T08:50:08.161Z,15.00
2019-04-01T08:51:08.118Z,16.40
2019-04-01T08:52:08.080Z,14.30
2019-04-01T08:53:08.067Z,16.10
2019-04-01T08:54:08.003Z,17.00
2019-04-01T08:55:07.957Z,16.60
2019-04-01T08:56:07.928Z,15.40
2019-04-01T08:57:07.875Z,14.20
2019-04-01T08:58:07.859Z,14.50
2019-04-01T08:59:07.796Z,15.10
2019-04-01T09:00:07.758Z,15.40
2019-04-01T09:01:07.719Z,13.80
2019-04-01T09:02:17.746Z,14.50
2019-04-01T09:03:07.635Z,14.40
2019-04-01T09:04:07.596Z,14.70
2019-04-01T09:05:07.557Z,14.60
2019-04-01T09:06:07.606Z,16.10
2019-04-01T09:07:07.478Z,15.70
2019-04-01T09:08:07.437Z,17.50
2019-04-01T09:09:07.393Z,15.20
2019-04-01T09:10:07.361Z,17.50
2019-04-01T09:11:07.313Z,14.60
2019-04-01T09:12:07.284Z,15.40
2019-04-01T09:13:07.242Z,15.20
2019-04-01T09:14:07.198Z,17.30
2019-04-01T09:15:07.161Z,16.10
2019-04-01T09:16:07.135Z,15.10
2019-04-01T09:17:07.074Z,18.60
2019-04-01T09:18:07.059Z,16.40
2019-04-01T09:19:06.997Z,15.40
2019-04-01T09:20:06.955Z,16.70
2019-04-01T09:21:06.912Z,14.00
2019-04-01T09:22:06.879Z,19.30
2019-04-01T09:23:06.834Z,16.70
2019-04-01T09:24:06.796Z,15.70
2019-04-01T09:25:06.774Z,15.60
2019-04-01T09:26:06.720Z,14.40
2019-04-01T09:27:06.733Z,16.60
2019-04-01T09:28:06.657Z,14.80
2019-04-01T09:29:06.599Z,15.40
2019-04-01T09:30:06.553Z,15.00
2019-04-01T09:31:06.514Z,15.30
2019-04-01T09:32:06.482Z,14.20
2019-04-01T09:33:06.444Z,16.80
2019-04-01T09:34:06.393Z,17.10
2019-04-01T09:35:06.356Z,17.70
2019-04-01T09:36:06.329Z,15.20
2019-04-01T09:37:06.284Z,17.90
2019-04-01T09:50:51.747Z,14.90
2019-04-01T09:51:51.783Z,17.90
2019-04-01T09:52:51.814Z,15.80
2019-04-01T09:53:51.638Z,18.80
2019-04-01T09:54:51.604Z,19.10
2019-04-01T09:55:51.495Z,17.00
2019-04-01T09:56:51.453Z,18.30
2019-04-01T09:57:51.410Z,18.50
2019-04-01T09:58:51.367Z,20.90
2019-04-01T09:59:51.356Z,16.30
2019-04-01T10:00:53.120Z,17.60
2019-04-01T10:01:51.248Z,18.10
2019-04-01T10:02:51.210Z,17.80
2019-04-01T10:03:51.164Z,18.90
2019-04-01T10:04:51.129Z,18.20
2019-04-01T10:05:51.087Z,21.20
2019-04-01T10:06:51.048Z,17.30
2019-04-01T10:07:51.120Z,19.20
2019-04-01T10:08:50.970Z,18.50
2019-04-01T10:09:50.938Z,21.00
2019-04-01T10:10:50.886Z,17.80
2019-04-01T10:11:50.845Z,20.20
2019-04-01T10:12:50.811Z,21.50
2019-04-01T10:13:50.771Z,17.10
2019-04-01T10:14:50.733Z,18.00
2019-04-01T10:15:50.692Z,17.80
2019-04-01T10:16:50.666Z,19.20
2019-04-01T10:17:50.610Z,17.50
2019-04-01T10:18:50.569Z,20.00
2019-04-01T10:19:50.545Z,17.40
2019-04-01T10:20:50.500Z,17.60
2019-04-01T10:21:50.454Z,18.40
2019-04-01T10:22:50.443Z,19.70
2019-04-01T10:23:50.376Z,17.60
2019-04-01T10:24:50.337Z,18.60
2019-04-01T10:25:51.545Z,17.80
2019-04-01T10:26:50.270Z,17.30
2019-04-01T10:27:50.224Z,16.70
2019-04-01T10:28:50.183Z,19.00
2019-04-01T10:29:50.147Z,16.30
2019-04-01T10:30:50.107Z,19.00
2019-04-01T10:31:50.068Z,16.90
2019-04-01T10:32:50.028Z,19.10
2019-04-01T10:33:49.995Z,16.50
2019-04-01T10:34:49.954Z,18.00
2019-04-01T10:35:49.915Z,18.20
2019-04-01T10:36:49.874Z,19.80
2019-04-01T10:37:49.839Z,18.60
2019-04-01T10:38:49.800Z,19.30
2019-04-01T10:39:49.765Z,20.10
2019-04-01T10:40:49.728Z,17.70
2019-04-01T10:41:49.685Z,17.60
2019-04-01T10:42:49.642Z,17.50
2019-04-01T10:43:49.603Z,17.90
2019-04-01T10:44:49.571Z,20.60
2019-04-01T10:45:49.529Z,19.40
2019-04-01T10:46:49.519Z,18.60
2019-04-01T10:47:49.500Z,18.70
2019-04-01T10:48:49.437Z,17.60
2019-04-01T10:49:49.433Z,18.80
2019-04-01T10:50:49.474Z,20.40
2019-04-01T10:51:49.308Z,20.60
2019-04-01T10:52:49.409Z,18.10
2019-04-01T10:53:49.223Z,17.30
2019-04-01T10:54:49.187Z,19.50
2019-04-01T10:55:49.229Z,20.40
2019-04-01T10:56:49.124Z,25.30
2019-04-01T10:57:49.073Z,20.00
2019-04-01T10:58:49.038Z,18.70
2019-04-01T10:59:49.100Z,21.40
2019-04-01T11:00:49.019Z,20.40
2019-04-01T11:01:48.997Z,17.40
2019-04-01T11:02:50.217Z,18.10
2019-04-01T11:03:48.968Z,18.70
2019-04-01T11:04:48.889Z,19.00
2019-04-01T11:05:48.790Z,19.60
2019-04-01T11:06:48.756Z,20.70
2019-04-01T11:07:48.687Z,18.30
2019-04-01T11:08:48.676Z,18.30
2019-04-01T11:09:48.618Z,20.40
2019-04-01T11:10:48.579Z,20.00
2019-04-01T11:11:48.540Z,23.80
2019-04-01T11:12:48.499Z,18.00
2019-04-01T11:13:51.570Z,20.50
2019-04-01T11:14:48.426Z,23.30
2019-04-01T11:15:48.906Z,19.40
2019-04-01T11:16:48.352Z,22.80
2019-04-01T11:17:51.889Z,24.60
2019-04-01T11:18:48.276Z,21.60
2019-04-01T11:19:48.239Z,18.70
2019-04-01T11:20:48.201Z,23.00
2019-04-01T11:21:48.158Z,23.80
2019-04-01T11:22:48.126Z,22.80
2019-04-01T11:23:48.089Z,22.00
2019-04-01T11:24:48.147Z,21.70
2019-04-01T11:25:48.009Z,24.10
2019-04-01T11:26:47.969Z,25.60
2019-04-01T11:27:47.964Z,26.00
2019-04-01T11:28:47.896Z,23.70
2019-04-01T11:29:47.862Z,21.90
2019-04-01T11:30:47.837Z,21.90
2019-04-01T11:31:47.832Z,22.80
2019-04-01T11:32:47.789Z,24.50
2019-04-01T11:33:47.738Z,23.50
2019-04-01T11:34:47.682Z,21.20
2019-04-01T11:35:47.651Z,21.70
2019-04-01T11:36:47.599Z,24.70
2019-04-01T11:37:47.564Z,22.20
2019-04-01T11:38:47.527Z,21.30
2019-04-01T11:39:47.492Z,23.00
2019-04-01T11:40:47.492Z,22.70
2019-04-01T11:41:47.441Z,20.60
2019-04-01T11:42:47.421Z,24.90
2019-04-01T11:43:47.338Z,24.60
2019-04-01T11:44:47.341Z,22.50
2019-04-01T11:45:47.278Z,26.40
2019-04-01T11:46:47.235Z,23.90
2019-04-01T11:47:47.197Z,21.40
2019-04-01T11:48:47.148Z,24.90
2019-04-01T11:49:47.129Z,26.20
2019-04-01T11:50:47.909Z,24.90
2019-04-01T11:51:47.089Z,24.80
2019-04-01T11:52:47.022Z,24.10
2019-04-01T11:53:46.964Z,23.90
2019-04-01T11:54:46.925Z,27.60
2019-04-01T11:55:46.894Z,22.90
2019-04-01T11:56:46.852Z,28.10
2019-04-01T11:57:46.815Z,24.90
2019-04-01T11:58:46.775Z,25.60
2019-04-01T11:59:46.738Z,26.10
2019-04-01T12:00:46.702Z,23.40
2019-04-01T12:01:47.489Z,25.50
2019-04-01T12:02:46.668Z,22.80
2019-04-01T12:03:46.594Z,27.30
2019-04-01T12:04:46.558Z,27.10
2019-04-01T12:05:46.520Z,25.50
2019-04-01T12:06:46.480Z,28.80
2019-04-01T12:07:46.447Z,25.80
2019-04-01T12:08:46.405Z,26.00
2019-04-01T12:09:46.374Z,25.50
2019-04-01T12:10:46.336Z,31.00
2019-04-01T12:11:46.296Z,25.00
2019-04-01T12:12:46.257Z,27.00
2019-04-01T12:13:46.228Z,28.00
2019-04-01T12:14:46.188Z,26.80
2019-04-01T12:15:46.155Z,28.90
2019-04-01T12:16:46.116Z,27.40
2019-04-01T12:17:46.074Z,27.20
2019-04-01T12:18:46.039Z,25.60
2019-04-01T12:19:46.003Z,26.10
2019-04-01T12:20:45.963Z,28.00
2019-04-01T12:21:45.935Z,26.00
2019-04-01T12:22:46.248Z,25.40
2019-04-01T12:23:45.859Z,25.20
2019-04-01T12:24:45.823Z,28.20
2019-04-01T12:25:45.781Z,26.60
2019-04-01T12:26:47.029Z,28.40
2019-04-01T12:27:45.712Z,24.90
2019-04-01T12:28:45.680Z,26.90
2019-04-01T12:29:48.253Z,26.00
2019-04-01T12:30:45.600Z,24.00
2019-04-01T12:31:45.563Z,26.20
2019-04-01T12:32:45.525Z,26.30
2019-04-01T12:33:45.494Z,25.40
2019-04-01T12:34:46.661Z,26.70
2019-04-01T12:35:45.426Z,27.30
2019-04-01T12:36:45.384Z,26.10
2019-04-01T12:37:45.979Z,25.90
2019-04-01T12:38:45.308Z,25.60
2019-04-01T12:39:45.272Z,27.80
2019-04-01T12:40:45.232Z,24.20
2019-04-01T12:41:45.204Z,25.20
2019-04-01T12:42:46.419Z,25.40
2019-04-01T12:43:45.127Z,26.30
2019-04-01T12:44:45.089Z,24.30
2019-04-01T12:45:45.057Z,24.30
2019-04-01T12:46:45.021Z,25.70
2019-04-01T12:47:44.986Z,26.30
2019-04-01T12:48:44.950Z,23.00
2019-04-01T12:49:44.906Z,26.50
2019-04-01T12:50:44.871Z,24.30
2019-04-01T12:51:44.842Z,24.40
2019-04-01T12:52:44.796Z,24.40
2019-04-01T12:53:45.191Z,24.20
2019-04-01T12:54:44.949Z,26.10
2019-04-01T12:55:45.143Z,24.00
2019-04-01T12:56:44.669Z,25.30
2019-04-01T12:57:48.071Z,24.70
2019-04-01T12:58:44.588Z,24.90
2019-04-01T12:59:45.896Z,24.80
2019-04-01T13:00:44.528Z,26.00
2019-04-01T13:01:44.476Z,24.40
2019-04-01T13:02:44.436Z,26.00
2019-04-01T13:03:44.401Z,26.10
2019-04-01T13:04:44.365Z,25.30
2019-04-01T13:05:44.333Z,28.30
2019-04-01T13:06:44.297Z,24.00
2019-04-01T13:07:44.289Z,25.40
2019-04-01T13:08:44.228Z,24.80
2019-04-01T13:09:44.183Z,23.50
2019-04-01T13:10:44.153Z,24.90
2019-04-01T13:11:44.112Z,25.30
2019-04-01T13:12:44.079Z,26.30
2019-04-01T13:13:44.755Z,24.70
2019-04-01T13:14:44.006Z,24.30
2019-04-01T13:15:43.968Z,27.40
2019-04-01T13:16:43.930Z,23.80
2019-04-01T13:17:43.900Z,23.70
2019-04-01T13:18:43.863Z,26.40